createdAt,value
2019-01-25T00:01:23.858Z,55.07
2019-01-25T00:03:51.259Z,61.67
2019-01-25T00:06:18.682Z,56.80
2019-01-25T00:08:46.069Z,53.73
2019-01-25T00:11:13.486Z,53.10
2019-01-25T00:13:40.903Z,56.13
2019-01-25T00:16:08.372Z,52.60
2019-01-25T00:18:35.782Z,55.87
2019-01-25T00:21:03.156Z,46.03
2019-01-25T00:23:30.632Z,48.60
2019-01-25T00:25:58.036Z,48.70
2019-01-25T00:28:25.440Z,45.40
2019-01-25T00:30:52.852Z,43.80
2019-01-25T00:33:20.229Z,42.80
2019-01-25T00:35:47.652Z,46.43
2019-01-25T00:38:15.048Z,44.50
2019-01-25T00:40:42.460Z,47.80
2019-01-25T00:43:09.841Z,47.50
2019-01-25T00:45:37.248Z,46.53
2019-01-25T00:48:06.188Z,44.03
2019-01-25T00:50:33.588Z,47.17
2019-01-25T00:53:00.977Z,46.87
2019-01-25T00:55:28.356Z,47.87
2019-01-25T00:57:55.844Z,47.80
2019-01-25T01:00:27.628Z,45.00
2019-01-25T01:02:55.009Z,50.63
2019-01-25T01:05:24.257Z,50.20
2019-01-25T01:07:53.314Z,50.67
2019-01-25T01:10:22.278Z,49.10
2019-01-25T01:12:51.235Z,48.60
2019-01-25T01:15:20.164Z,53.20
2019-01-25T01:17:47.560Z,51.33
2019-01-25T01:20:18.644Z,51.87
2019-01-25T01:22:46.057Z,53.17
2019-01-25T01:25:14.999Z,55.50
2019-01-25T01:27:42.391Z,53.43
2019-01-25T01:30:11.338Z,49.43
2019-01-25T01:32:38.732Z,51.33
2019-01-25T01:35:07.659Z,49.77
2019-01-25T01:37:35.044Z,51.03
2019-01-25T01:40:03.913Z,47.87
2019-01-25T01:42:31.281Z,48.10
2019-01-25T01:44:58.684Z,45.53
2019-01-25T01:47:26.011Z,46.77
2019-01-25T01:49:53.377Z,42.90
2019-01-25T01:52:20.700Z,39.33
2019-01-25T01:54:48.009Z,36.13
2019-01-25T01:57:15.469Z,36.57
2019-01-25T01:59:42.853Z,35.57
2019-01-25T02:02:10.257Z,34.63
2019-01-25T02:04:37.629Z,33.47
2019-01-25T02:07:05.045Z,32.83
2019-01-25T02:09:32.423Z,34.03
2019-01-25T02:11:59.829Z,35.53
2019-01-25T02:14:27.216Z,36.00
2019-01-25T02:16:54.613Z,36.97
2019-01-25T02:19:22.025Z,39.20
2019-01-25T02:21:49.393Z,35.60
2019-01-25T02:24:16.729Z,37.43
2019-01-25T02:26:44.102Z,34.57
2019-01-25T02:29:11.426Z,36.83
2019-01-25T02:31:38.834Z,39.50
2019-01-25T02:34:06.248Z,36.53
2019-01-25T02:36:33.650Z,34.63
2019-01-25T02:39:01.087Z,36.00
2019-01-25T02:41:28.458Z,41.17
2019-01-25T02:43:56.806Z,36.73
2019-01-25T02:46:24.120Z,35.93
2019-01-25T02:48:51.541Z,35.53
2019-01-25T02:51:18.920Z,34.33
2019-01-25T02:53:46.243Z,33.40
2019-01-25T02:56:13.636Z,31.33
2019-01-25T02:58:41.029Z,32.07
2019-01-25T03:01:08.351Z,34.90
2019-01-25T03:03:35.738Z,33.90
2019-01-25T03:06:03.106Z,29.60
2019-01-25T03:08:30.524Z,35.57
2019-01-25T03:10:57.917Z,32.63
2019-01-25T03:13:25.320Z,29.50
2019-01-25T03:15:52.726Z,30.60
2019-01-25T03:18:20.116Z,31.50
2019-01-25T03:20:47.532Z,31.57
2019-01-25T03:23:14.940Z,31.87
2019-01-25T03:25:42.345Z,32.03
2019-01-25T03:28:09.820Z,29.63
2019-01-25T03:30:37.237Z,30.30
2019-01-25T03:33:04.710Z,31.57
2019-01-25T03:35:32.109Z,31.30
2019-01-25T03:37:59.501Z,29.07
2019-01-25T03:40:28.440Z,34.20
2019-01-25T03:42:55.853Z,32.90
2019-01-25T03:45:23.523Z,35.03
2019-01-25T03:47:52.451Z,35.60
2019-01-25T03:50:21.418Z,34.70
2019-01-25T03:52:48.784Z,32.83
2019-01-25T03:55:17.757Z,33.30
2019-01-25T03:57:45.148Z,32.33
2019-01-25T04:00:14.089Z,31.80
2019-01-25T04:02:43.341Z,34.80
2019-01-25T04:05:12.573Z,32.77
2019-01-25T04:07:39.908Z,34.47
2019-01-25T04:10:08.844Z,33.27
2019-01-25T04:12:36.238Z,35.40
2019-01-25T04:15:05.145Z,32.97
2019-01-25T04:17:32.557Z,36.07
2019-01-25T04:19:59.955Z,33.60
2019-01-25T04:22:27.333Z,34.70
2019-01-25T04:24:54.736Z,33.10
2019-01-25T04:27:22.131Z,33.47
2019-01-25T04:29:49.527Z,34.70
2019-01-25T04:32:16.940Z,34.27
2019-01-25T04:34:44.365Z,35.77
2019-01-25T04:37:11.753Z,36.60
2019-01-25T04:39:39.162Z,36.47
2019-01-25T04:42:06.549Z,31.87
2019-01-25T04:44:33.970Z,34.43
2019-01-25T04:47:01.364Z,34.33
2019-01-25T04:49:30.321Z,31.23
2019-01-25T04:51:57.692Z,33.27
2019-01-25T04:54:25.092Z,33.10
2019-01-25T04:56:52.426Z,39.10
2019-01-25T04:59:19.851Z,37.53
2019-01-25T05:01:47.239Z,35.77
2019-01-25T05:04:14.642Z,36.97
2019-01-25T05:06:41.986Z,38.80
2019-01-25T05:09:09.327Z,37.20
2019-01-25T05:11:36.578Z,40.60
2019-01-25T05:14:05.631Z,42.90
2019-01-25T05:16:32.879Z,40.90
2019-01-25T05:19:00.171Z,40.77
2019-01-25T05:21:27.444Z,37.97
2019-01-25T05:23:54.808Z,38.07
2019-01-25T05:26:22.218Z,41.73
2019-01-25T05:28:49.483Z,40.13
2019-01-25T05:31:16.743Z,36.67
2019-01-25T05:33:47.194Z,40.07
2019-01-25T05:36:14.436Z,38.80
2019-01-25T05:38:44.879Z,34.83
2019-01-25T05:41:12.158Z,38.17
2019-01-25T05:43:41.202Z,39.00
2019-01-25T05:46:08.545Z,40.90
2019-01-25T05:48:35.804Z,35.03
2019-01-25T05:51:04.617Z,41.70
2019-01-25T05:53:31.891Z,39.87
2019-01-25T05:55:59.171Z,40.73
2019-01-25T05:58:26.419Z,42.00
2019-01-25T06:00:53.705Z,36.43
2019-01-25T06:03:20.966Z,38.33
2019-01-25T06:05:48.265Z,38.53
2019-01-25T06:08:31.050Z,37.93
2019-01-25T06:10:59.866Z,36.20
2019-01-25T06:13:27.114Z,35.50
2019-01-25T06:15:54.364Z,39.77
2019-01-25T06:18:21.659Z,40.70
2019-01-25T06:20:50.476Z,40.20
2019-01-25T06:23:17.741Z,37.10
2019-01-25T06:25:48.199Z,39.47
2019-01-25T06:28:15.474Z,40.73
2019-01-25T06:30:44.358Z,38.10
2019-01-25T06:33:11.645Z,38.87
2019-01-25T06:35:38.896Z,39.33
2019-01-25T06:38:06.175Z,42.50
2019-01-25T06:40:33.462Z,42.17
2019-01-25T06:43:00.735Z,37.90
2019-01-25T06:45:27.996Z,38.03
2019-01-25T06:47:55.271Z,37.50
2019-01-25T06:50:22.537Z,36.10
2019-01-25T06:52:49.817Z,41.23
2019-01-25T06:55:17.103Z,36.63
2019-01-25T06:57:46.013Z,41.53
2019-01-25T07:00:16.418Z,40.77
2019-01-25T07:02:43.705Z,41.80
2019-01-25T07:05:10.955Z,43.07
2019-01-25T07:07:39.876Z,39.13
2019-01-25T07:10:08.682Z,40.53
2019-01-25T07:12:35.950Z,36.63
2019-01-25T07:15:04.779Z,39.63
2019-01-25T07:17:32.034Z,37.50
2019-01-25T07:19:59.342Z,39.83
2019-01-25T07:22:26.702Z,41.10
2019-01-25T07:24:57.296Z,39.47
2019-01-25T07:27:22.966Z,40.97
2019-01-25T07:29:50.243Z,40.93
2019-01-25T07:32:17.499Z,41.37
2019-01-25T07:34:44.922Z,38.43
2019-01-25T07:37:12.282Z,37.13
2019-01-25T07:39:39.642Z,34.67
2019-01-25T07:42:07.013Z,45.53
2019-01-25T07:44:34.326Z,39.00
2019-01-25T07:47:01.683Z,39.50
2019-01-25T07:49:29.013Z,37.33
2019-01-25T07:51:56.320Z,24.70
2019-01-25T07:54:23.664Z,36.83
2019-01-25T07:56:51.406Z,24.43
2019-01-25T07:59:19.112Z,39.03
2019-01-25T08:01:46.425Z,35.10
2019-01-25T08:04:13.696Z,38.03
2019-01-25T08:06:41.152Z,29.47
2019-01-25T08:09:08.534Z,26.53
2019-01-25T08:11:35.789Z,35.07
2019-01-25T08:14:04.099Z,39.87
2019-01-25T08:16:33.509Z,41.83
2019-01-25T08:19:00.810Z,40.80
2019-01-25T08:21:28.147Z,34.33
2019-01-25T08:23:55.490Z,35.13
2019-01-25T08:26:22.897Z,34.67
2019-01-25T08:28:51.743Z,45.30
2019-01-25T08:31:19.071Z,43.07
2019-01-25T08:33:46.466Z,42.83
2019-01-25T08:36:13.729Z,30.20
2019-01-25T08:38:40.979Z,47.67
2019-01-25T08:41:08.289Z,32.07
2019-01-25T08:43:35.634Z,41.43
2019-01-25T08:46:03.011Z,46.37
2019-01-25T08:48:30.395Z,61.37
2019-01-25T08:50:59.333Z,63.47
2019-01-25T08:53:26.699Z,40.37
2019-01-25T08:55:54.153Z,37.33
2019-01-25T08:58:21.806Z,34.23
2019-01-25T09:00:51.870Z,40.47
2019-01-25T09:03:19.767Z,33.20
2019-01-25T09:05:47.046Z,51.30
2019-01-25T09:08:14.322Z,48.53
2019-01-25T09:10:41.580Z,66.13
2019-01-25T09:13:08.939Z,56.30
2019-01-25T09:15:36.223Z,43.93
2019-01-25T09:18:03.496Z,53.87
2019-01-25T09:20:30.794Z,57.27
2019-01-25T09:22:58.135Z,34.50
2019-01-25T09:25:25.439Z,42.10
2019-01-25T09:27:52.695Z,42.40
2019-01-25T09:30:35.176Z,38.87
2019-01-25T09:33:30.885Z,41.40
2019-01-25T09:36:42.587Z,38.40
2019-01-25T09:39:34.221Z,35.47
2019-01-25T09:42:00.763Z,40.20
2019-01-25T09:44:28.060Z,36.57
2019-01-25T09:46:55.335Z,50.17
2019-01-25T09:49:22.600Z,41.97
2019-01-25T09:51:51.208Z,46.60
2019-01-25T09:54:18.561Z,38.90
2019-01-25T09:56:45.864Z,31.63
2019-01-25T09:59:13.146Z,48.33
2019-01-25T10:01:40.422Z,31.57
2019-01-25T10:04:07.750Z,46.47
2019-01-25T10:06:35.046Z,45.43
2019-01-25T10:09:03.560Z,32.83
2019-01-25T10:11:30.851Z,44.43
2019-01-25T10:13:58.127Z,43.83
2019-01-25T10:16:25.400Z,46.83
2019-01-25T10:18:52.690Z,36.70
2019-01-25T10:21:19.986Z,37.63
2019-01-25T10:23:47.277Z,40.87
2019-01-25T10:26:14.628Z,36.27
2019-01-25T10:28:41.946Z,31.63
2019-01-25T10:31:09.310Z,56.67
2019-01-25T10:33:36.610Z,41.90
2019-01-25T10:36:05.410Z,28.50
2019-01-25T10:38:32.695Z,27.23
2019-01-25T10:40:59.988Z,30.50
2019-01-25T10:43:27.257Z,34.87
2019-01-25T10:45:54.550Z,41.30
2019-01-25T10:48:21.824Z,30.47
2019-01-25T10:50:49.183Z,37.83
2019-01-25T10:53:16.602Z,39.27
2019-01-25T10:55:44.222Z,33.03
2019-01-25T10:58:11.486Z,26.53
2019-01-25T11:00:38.754Z,34.00
2019-01-25T11:03:06.023Z,38.87
2019-01-25T11:05:34.838Z,28.53
2019-01-25T11:08:02.184Z,29.00
2019-01-25T11:10:29.432Z,32.87
2019-01-25T11:13:01.034Z,28.40
2019-01-25T11:15:25.763Z,26.77
2019-01-25T11:17:53.053Z,31.83
2019-01-25T11:20:21.286Z,21.33
2019-01-25T11:22:48.574Z,31.70
2019-01-25T11:25:17.419Z,25.37
2019-01-25T11:27:44.688Z,26.53
2019-01-25T11:30:13.510Z,23.07
2019-01-25T11:32:40.817Z,26.00
2019-01-25T11:35:08.166Z,22.73
2019-01-25T11:37:35.434Z,32.93
2019-01-25T11:40:04.238Z,17.33
2019-01-25T11:42:31.512Z,21.80
2019-01-25T11:44:58.775Z,24.00
2019-01-25T11:47:26.127Z,27.23
2019-01-25T11:49:53.427Z,25.83
2019-01-25T11:52:24.966Z,25.70
2019-01-25T11:54:50.493Z,31.37
2019-01-25T11:57:18.732Z,21.33
2019-01-25T11:59:46.002Z,26.07
2019-01-25T12:02:13.274Z,34.53
2019-01-25T12:04:40.638Z,30.80
2019-01-25T12:07:07.930Z,22.27
2019-01-25T12:09:35.217Z,27.13
2019-01-25T12:12:02.481Z,34.10
2019-01-25T12:14:29.766Z,32.03
2019-01-25T12:16:57.035Z,33.13
2019-01-25T12:19:24.310Z,18.77
2019-01-25T12:21:51.567Z,24.90
2019-01-25T12:24:18.872Z,23.17
2019-01-25T12:26:46.191Z,33.10
2019-01-25T12:29:13.484Z,22.57
2019-01-25T12:31:40.830Z,33.87
2019-01-25T12:34:08.128Z,27.33
2019-01-25T12:36:35.395Z,26.17
2019-01-25T12:39:03.715Z,20.87
2019-01-25T12:41:31.012Z,27.73
2019-01-25T12:43:58.270Z,26.53
2019-01-25T12:46:25.561Z,28.77
2019-01-25T12:48:53.035Z,23.63
2019-01-25T12:51:20.405Z,35.13
2019-01-25T12:53:48.022Z,32.23
2019-01-25T12:56:15.374Z,28.00
2019-01-25T12:58:42.711Z,21.03
2019-01-25T13:01:10.654Z,23.40
2019-01-25T13:03:37.963Z,17.80
2019-01-25T13:06:06.311Z,23.80
2019-01-25T13:08:33.657Z,25.10
2019-01-25T13:11:01.021Z,28.10
2019-01-25T13:13:31.663Z,20.10
2019-01-25T13:15:57.288Z,25.07
2019-01-25T13:18:24.541Z,21.70
2019-01-25T13:20:51.828Z,26.13
2019-01-25T13:23:19.106Z,24.17
2019-01-25T13:25:47.345Z,25.53
2019-01-25T13:28:15.398Z,27.23
2019-01-25T13:30:42.751Z,25.23
2019-01-25T13:33:10.119Z,24.57
2019-01-25T13:35:37.502Z,38.83
2019-01-25T13:38:04.841Z,20.50
2019-01-25T13:40:32.108Z,31.47
2019-01-25T13:42:59.393Z,33.77
2019-01-25T13:45:26.641Z,24.07
2019-01-25T13:47:53.983Z,27.57
2019-01-25T13:50:22.791Z,30.30
2019-01-25T13:52:51.142Z,25.70
2019-01-25T13:55:19.997Z,26.93
2019-01-25T13:57:47.323Z,27.43
2019-01-25T14:00:17.283Z,30.03
2019-01-25T14:02:44.614Z,30.47
2019-01-25T14:05:13.771Z,26.37
2019-01-25T14:07:41.128Z,29.67
2019-01-25T14:10:09.932Z,27.43
2019-01-25T14:12:37.231Z,28.03
2019-01-25T14:15:06.067Z,28.47
2019-01-25T14:17:33.343Z,29.47
2019-01-25T14:20:00.603Z,30.77
2019-01-25T14:22:27.902Z,42.97
2019-01-25T14:24:55.202Z,35.37
2019-01-25T14:27:22.506Z,37.60
2019-01-25T14:29:49.781Z,30.13
2019-01-25T14:32:17.035Z,28.43
2019-01-25T14:34:44.299Z,34.77
2019-01-25T14:37:11.676Z,31.10
2019-01-25T14:39:38.976Z,32.00
2019-01-25T14:42:06.228Z,32.27
2019-01-25T14:44:33.526Z,30.77
2019-01-25T14:47:00.798Z,28.17
2019-01-25T14:49:28.066Z,33.77
2019-01-25T14:51:55.332Z,27.97
2019-01-25T14:54:22.583Z,24.57
2019-01-25T14:56:49.885Z,39.80
2019-01-25T14:59:17.156Z,29.13
2019-01-25T15:01:44.503Z,28.10
2019-01-25T15:04:11.790Z,31.47
2019-01-25T15:06:39.048Z,27.47
2019-01-25T15:09:07.854Z,34.07
2019-01-25T15:11:35.144Z,24.90
2019-01-25T15:14:02.700Z,27.87
2019-01-25T15:16:30.533Z,28.33
2019-01-25T15:18:57.805Z,25.30
2019-01-25T15:21:25.079Z,22.83
2019-01-25T15:23:52.323Z,35.60
2019-01-25T15:26:19.602Z,29.87
2019-01-25T15:28:46.852Z,41.47
2019-01-25T15:31:14.131Z,26.33
2019-01-25T15:33:41.391Z,26.23
2019-01-25T15:36:08.647Z,30.37
2019-01-25T15:38:35.944Z,27.93
2019-01-25T15:41:03.199Z,28.60
2019-01-25T15:43:30.483Z,30.67
2019-01-25T15:45:57.731Z,23.10
2019-01-25T15:48:25.007Z,28.57
2019-01-25T15:50:52.300Z,23.17
2019-01-25T15:53:19.639Z,26.77
2019-01-25T15:55:46.999Z,33.20
2019-01-25T15:58:15.170Z,25.47
2019-01-25T16:00:42.450Z,21.57
2019-01-25T16:03:09.718Z,28.77
2019-01-25T16:05:37.022Z,24.33
2019-01-25T16:08:04.375Z,26.07
2019-01-25T16:10:31.655Z,37.43
2019-01-25T16:13:01.032Z,35.13
2019-01-25T16:15:28.831Z,30.67
2019-01-25T16:17:57.701Z,29.60
2019-01-25T16:20:25.057Z,41.00
2019-01-25T16:22:53.837Z,18.20
2019-01-25T16:25:22.664Z,31.93
2019-01-25T16:27:49.939Z,34.47
2019-01-25T16:30:24.854Z,24.53
2019-01-25T16:32:53.654Z,23.63
2019-01-25T16:35:20.915Z,34.23
2019-01-25T16:37:48.214Z,26.17
2019-01-25T16:40:17.044Z,27.00
2019-01-25T16:42:44.298Z,21.17
2019-01-25T16:45:13.084Z,22.00
2019-01-25T16:47:40.414Z,27.27
2019-01-25T16:50:09.233Z,19.40
2019-01-25T16:52:36.518Z,20.73
2019-01-25T16:55:05.326Z,24.30
2019-01-25T16:57:32.682Z,28.67
2019-01-25T16:59:59.954Z,23.60
2019-01-25T17:02:27.231Z,21.57
2019-01-25T17:04:54.502Z,19.57
2019-01-25T17:07:21.759Z,20.10
2019-01-25T17:09:49.080Z,28.47
2019-01-25T17:12:16.327Z,23.93
2019-01-25T17:14:43.595Z,23.60
2019-01-25T17:17:10.894Z,23.57
2019-01-25T17:19:38.201Z,21.83
2019-01-25T17:22:05.519Z,30.37
2019-01-25T17:24:32.812Z,19.03
2019-01-25T17:27:00.082Z,22.43
2019-01-25T17:29:27.386Z,32.13
2019-01-25T17:31:54.636Z,34.53
2019-01-25T17:34:21.907Z,39.50
2019-01-25T17:36:49.178Z,45.90
2019-01-25T17:39:16.539Z,44.47
2019-01-25T17:41:43.816Z,49.27
2019-01-25T17:44:11.158Z,54.70
2019-01-25T17:46:38.434Z,48.97
2019-01-25T17:49:05.690Z,42.90
2019-01-25T17:51:33.053Z,45.23
2019-01-25T17:54:00.322Z,44.67
2019-01-25T17:56:27.616Z,48.80
2019-01-25T17:58:55.009Z,48.40
2019-01-25T18:01:22.256Z,44.20
2019-01-25T18:03:49.526Z,44.23
2019-01-25T18:06:16.867Z,47.30
2019-01-25T18:08:44.134Z,45.83
2019-01-25T18:11:11.420Z,46.63
2019-01-25T18:13:38.675Z,44.53
2019-01-25T18:16:06.072Z,42.67
2019-01-25T18:18:33.350Z,45.10
2019-01-25T18:21:00.644Z,45.83
2019-01-25T18:23:27.906Z,43.57
2019-01-25T18:25:56.735Z,36.63
2019-01-25T18:28:28.527Z,39.23
2019-01-25T18:30:57.307Z,39.73
2019-01-25T18:33:24.554Z,32.87
2019-01-25T18:35:51.890Z,34.20
2019-01-25T18:38:19.147Z,31.63
2019-01-25T18:40:46.419Z,30.70
2019-01-25T18:43:13.678Z,28.30
2019-01-25T18:45:40.965Z,28.57
2019-01-25T18:48:08.202Z,29.20
2019-01-25T18:50:35.462Z,28.37
2019-01-25T18:53:02.753Z,30.47
2019-01-25T18:55:30.009Z,28.03
2019-01-25T18:57:57.292Z,26.07
2019-01-25T19:00:26.016Z,26.10
2019-01-25T19:02:53.646Z,26.60
2019-01-25T19:05:20.915Z,24.37
2019-01-25T19:07:48.262Z,22.40
2019-01-25T19:10:17.058Z,18.90
2019-01-25T19:12:44.311Z,20.20
2019-01-25T19:15:13.115Z,19.00
2019-01-25T19:17:40.363Z,19.43
2019-01-25T19:20:09.172Z,18.17
2019-01-25T19:22:36.427Z,16.13
2019-01-25T19:25:05.259Z,16.17
2019-01-25T19:27:32.535Z,17.03
2019-01-25T19:29:59.779Z,17.23
2019-01-25T19:32:27.077Z,18.07
2019-01-25T19:34:54.346Z,16.27
2019-01-25T19:37:21.604Z,16.63
2019-01-25T19:39:48.855Z,15.77
2019-01-25T19:42:16.160Z,17.10
2019-01-25T19:44:46.478Z,15.47
2019-01-25T19:47:13.780Z,14.20
2019-01-25T19:49:41.058Z,15.60
2019-01-25T19:52:08.326Z,13.37
2019-01-25T19:54:35.601Z,11.80
2019-01-25T19:57:02.937Z,10.77
2019-01-25T19:59:31.939Z,12.47
2019-01-25T20:01:59.210Z,12.20
2019-01-25T20:04:26.484Z,11.53
2019-01-25T20:06:53.749Z,11.10
2019-01-25T20:09:21.032Z,8.63
2019-01-25T20:11:48.297Z,10.90
2019-01-25T20:14:15.616Z,9.33
2019-01-25T20:16:42.912Z,10.40
2019-01-25T20:19:10.164Z,9.07
2019-01-25T20:21:37.516Z,8.93
2019-01-25T20:24:04.787Z,9.23
2019-01-25T20:26:32.031Z,9.93
2019-01-25T20:28:59.295Z,10.10
2019-01-25T20:31:26.568Z,9.87
2019-01-25T20:33:53.891Z,8.87
2019-01-25T20:36:21.219Z,9.57
2019-01-25T20:38:48.466Z,8.23
2019-01-25T20:41:15.789Z,10.03
2019-01-25T20:43:43.061Z,10.33
2019-01-25T20:46:10.332Z,8.73
2019-01-25T20:48:37.587Z,8.30
2019-01-25T20:51:04.925Z,8.63
2019-01-25T20:53:32.210Z,7.90
2019-01-25T20:55:59.482Z,8.33
2019-01-25T20:58:26.782Z,11.87
2019-01-25T21:00:54.127Z,8.67
2019-01-25T21:03:23.069Z,9.70
2019-01-25T21:05:50.325Z,10.47
2019-01-25T21:08:17.591Z,8.10
2019-01-25T21:10:44.859Z,8.67
2019-01-25T21:13:13.643Z,9.33
2019-01-25T21:15:40.907Z,9.00
2019-01-25T21:18:08.243Z,13.30
2019-01-25T21:20:39.882Z,10.50
2019-01-25T21:23:08.689Z,11.33
2019-01-25T21:25:35.943Z,11.57
2019-01-25T21:28:04.753Z,9.23
2019-01-25T21:30:33.587Z,9.27
2019-01-25T21:33:00.958Z,10.30
2019-01-25T21:35:28.208Z,9.80
2019-01-25T21:37:55.474Z,10.43
2019-01-25T21:40:23.921Z,7.70
2019-01-25T21:42:51.171Z,9.27
2019-01-25T21:45:19.982Z,9.17
2019-01-25T21:47:47.223Z,8.50
2019-01-25T21:50:18.689Z,10.10
2019-01-25T21:52:45.950Z,9.10
2019-01-25T21:55:14.494Z,8.73
2019-01-25T21:57:41.829Z,9.90
2019-01-25T22:00:10.644Z,9.83
2019-01-25T22:02:37.951Z,9.27
2019-01-25T22:05:06.787Z,8.70
2019-01-25T22:07:34.072Z,9.93
2019-01-25T22:10:01.471Z,8.93
2019-01-25T22:12:30.387Z,8.73
2019-01-25T22:14:57.651Z,9.60
2019-01-25T22:17:24.919Z,8.70
2019-01-25T22:19:52.222Z,9.83
2019-01-25T22:22:19.520Z,10.50
2019-01-25T22:24:46.767Z,11.40
2019-01-25T22:27:14.054Z,10.63
2019-01-25T22:29:41.351Z,9.50
2019-01-25T22:32:08.610Z,9.97
2019-01-25T22:34:35.914Z,10.37
2019-01-25T22:37:03.183Z,10.43
2019-01-25T22:39:30.451Z,9.23
2019-01-25T22:41:57.727Z,10.33
2019-01-25T22:44:25.011Z,10.73
2019-01-25T22:46:52.284Z,8.63
2019-01-25T22:49:19.558Z,8.50
2019-01-25T22:51:46.874Z,8.33
2019-01-25T22:54:14.147Z,10.10
2019-01-25T22:56:41.423Z,9.03
2019-01-25T22:59:08.708Z,10.53
2019-01-25T23:01:36.635Z,10.03
2019-01-25T23:04:08.510Z,10.00
2019-01-25T23:06:37.316Z,10.57
2019-01-25T23:09:09.022Z,9.43
2019-01-25T23:11:36.322Z,8.20
2019-01-25T23:14:04.643Z,10.03
2019-01-25T23:16:31.891Z,10.67
2019-01-25T23:18:59.174Z,10.00
2019-01-25T23:21:26.433Z,9.63
2019-01-25T23:23:53.711Z,8.13
2019-01-25T23:26:20.991Z,9.77
2019-01-25T23:28:48.271Z,10.50
2019-01-25T23:31:15.499Z,9.60
2019-01-25T23:33:42.798Z,10.03
2019-01-25T23:36:10.077Z,9.07
2019-01-25T23:38:37.323Z,9.80
2019-01-25T23:41:04.603Z,8.87
2019-01-25T23:43:31.870Z,8.53
2019-01-25T23:45:59.159Z,8.17
2019-01-25T23:48:26.423Z,8.97
2019-01-25T23:50:53.698Z,10.70
2019-01-25T23:53:20.955Z,9.10
2019-01-25T23:55:48.243Z,8.50
2019-01-25T23:58:15.495Z,9.10
